sensor_id;sensor_type;location;lat;lon;timestamp;P1;durP1;ratioP1;P2;durP2;ratioP2
22138;SDS011;25815;52.582;13.408;2023-06-10T00:00:16;6.68;;;3.50;;
22138;SDS011;25815;52.582;13.408;2023-06-10T00:02:42;8.52;;;3.20;;
22138;SDS011;25815;52.582;13.408;2023-06-10T00:05:08;8.98;;;3.75;;
22138;SDS011;25815;52.582;13.408;2023-06-10T00:07:34;5.88;;;3.13;;
22138;SDS011;25815;52.582;13.408;2023-06-10T00:10:03;7.18;;;3.60;;
22138;SDS011;25815;52.582;13.408;2023-06-10T00:12:30;9.95;;;3.92;;
22138;SDS011;25815;52.582;13.408;2023-06-10T00:15:02;13.07;;;3.97;;
22138;SDS011;25815;52.582;13.408;2023-06-10T00:17:28;10.73;;;3.90;;
22138;SDS011;25815;52.582;13.408;2023-06-10T00:19:54;7.47;;;3.60;;
22138;SDS011;25815;52.582;13.408;2023-06-10T00:22:20;11.98;;;4.13;;
22138;SDS011;25815;52.582;13.408;2023-06-10T00:24:47;9.63;;;3.78;;
22138;SDS011;25815;52.582;13.408;2023-06-10T00:27:13;13.05;;;3.55;;
22138;SDS011;25815;52.582;13.408;2023-06-10T00:29:39;8.70;;;3.33;;
22138;SDS011;25815;52.582;13.408;2023-06-10T00:32:05;12.40;;;3.85;;
22138;SDS011;25815;52.582;13.408;2023-06-10T00:34:31;8.50;;;3.63;;
22138;SDS011;25815;52.582;13.408;2023-06-10T00:36:57;6.60;;;3.35;;
22138;SDS011;25815;52.582;13.408;2023-06-10T00:39:23;8.73;;;3.42;;
22138;SDS011;25815;52.582;13.408;2023-06-10T00:41:49;10.02;;;3.20;;
22138;SDS011;25815;52.582;13.408;2023-06-10T00:44:15;7.32;;;3.40;;
22138;SDS011;25815;52.582;13.408;2023-06-10T00:46:42;7.35;;;3.70;;
22138;SDS011;25815;52.582;13.408;2023-06-10T00:49:08;8.18;;;3.35;;
22138;SDS011;25815;52.582;13.408;2023-06-10T00:51:34;9.90;;;4.20;;
22138;SDS011;25815;52.582;13.408;2023-06-10T00:54:01;9.98;;;3.60;;
22138;SDS011;25815;52.582;13.408;2023-06-10T00:56:28;9.43;;;3.47;;
22138;SDS011;25815;52.582;13.408;2023-06-10T00:58:54;6.07;;;3.20;;
22138;SDS011;25815;52.582;13.408;2023-06-10T01:01:20;7.68;;;3.38;;
22138;SDS011;25815;52.582;13.408;2023-06-10T01:03:46;10.02;;;3.60;;
22138;SDS011;25815;52.582;13.408;2023-06-10T01:06:19;9.00;;;3.35;;
22138;SDS011;25815;52.582;13.408;2023-06-10T01:08:49;9.05;;;3.50;;
22138;SDS011;25815;52.582;13.408;2023-06-10T01:11:21;6.28;;;3.17;;
22138;SDS011;25815;52.582;13.408;2023-06-10T01:13:47;10.57;;;3.70;;
22138;SDS011;25815;52.582;13.408;2023-06-10T01:16:16;9.57;;;3.55;;
22138;SDS011;25815;52.582;13.408;2023-06-10T01:18:42;10.57;;;3.70;;
22138;SDS011;25815;52.582;13.408;2023-06-10T01:21:08;10.82;;;3.42;;
22138;SDS011;25815;52.582;13.408;2023-06-10T01:23:34;8.07;;;4.07;;
22138;SDS011;25815;52.582;13.408;2023-06-10T01:26:01;9.18;;;3.15;;
22138;SDS011;25815;52.582;13.408;2023-06-10T01:28:31;7.85;;;2.85;;
22138;SDS011;25815;52.582;13.408;2023-06-10T01:31:09;8.43;;;3.50;;
22138;SDS011;25815;52.582;13.408;2023-06-10T01:33:40;7.82;;;3.50;;
22138;SDS011;25815;52.582;13.408;2023-06-10T01:36:07;7.95;;;3.45;;
22138;SDS011;25815;52.582;13.408;2023-06-10T01:38:35;12.05;;;3.72;;
22138;SDS011;25815;52.582;13.408;2023-06-10T01:41:01;9.47;;;3.53;;
22138;SDS011;25815;52.582;13.408;2023-06-10T01:43:31;8.82;;;3.47;;
22138;SDS011;25815;52.582;13.408;2023-06-10T01:45:57;8.10;;;3.05;;
22138;SDS011;25815;52.582;13.408;2023-06-10T01:48:23;9.02;;;3.58;;
22138;SDS011;25815;52.582;13.408;2023-06-10T01:50:49;12.63;;;3.40;;
22138;SDS011;25815;52.582;13.408;2023-06-10T01:53:15;9.40;;;3.50;;
22138;SDS011;25815;52.582;13.408;2023-06-10T01:55:41;10.07;;;3.78;;
22138;SDS011;25815;52.582;13.408;2023-06-10T01:58:07;9.00;;;3.63;;
22138;SDS011;25815;52.582;13.408;2023-06-10T02:00:33;8.68;;;3.53;;
22138;SDS011;25815;52.582;13.408;2023-06-10T02:02:59;7.90;;;3.42;;
22138;SDS011;25815;52.582;13.408;2023-06-10T02:05:25;8.93;;;3.60;;
22138;SDS011;25815;52.582;13.408;2023-06-10T02:07:51;10.40;;;3.90;;
22138;SDS011;25815;52.582;13.408;2023-06-10T02:10:17;9.75;;;4.25;;
22138;SDS011;25815;52.582;13.408;2023-06-10T02:12:43;8.82;;;3.35;;
22138;SDS011;25815;52.582;13.408;2023-06-10T02:15:08;9.93;;;3.58;;
22138;SDS011;25815;52.582;13.408;2023-06-10T02:17:34;6.07;;;3.13;;
22138;SDS011;25815;52.582;13.408;2023-06-10T02:20:01;10.15;;;3.50;;
22138;SDS011;25815;52.582;13.408;2023-06-10T02:22:29;8.93;;;3.45;;
22138;SDS011;25815;52.582;13.408;2023-06-10T02:24:55;8.13;;;3.33;;
22138;SDS011;25815;52.582;13.408;2023-06-10T02:27:21;10.07;;;4.10;;
22138;SDS011;25815;52.582;13.408;2023-06-10T02:29:47;8.63;;;3.60;;
22138;SDS011;25815;52.582;13.408;2023-06-10T02:32:13;7.65;;;4.20;;
22138;SDS011;25815;52.582;13.408;2023-06-10T02:34:38;8.85;;;3.80;;
22138;SDS011;25815;52.582;13.408;2023-06-10T02:37:04;9.23;;;3.58;;
22138;SDS011;25815;52.582;13.408;2023-06-10T02:39:30;9.38;;;3.58;;
22138;SDS011;25815;52.582;13.408;2023-06-10T02:41:56;10.25;;;3.42;;
22138;SDS011;25815;52.582;13.408;2023-06-10T02:44:22;7.78;;;3.70;;
22138;SDS011;25815;52.582;13.408;2023-06-10T02:46:48;8.60;;;3.80;;
22138;SDS011;25815;52.582;13.408;2023-06-10T02:49:17;9.03;;;3.77;;
22138;SDS011;25815;52.582;13.408;2023-06-10T02:51:43;11.95;;;4.07;;
22138;SDS011;25815;52.582;13.408;2023-06-10T02:54:09;12.32;;;3.95;;
22138;SDS011;25815;52.582;13.408;2023-06-10T02:56:34;11.25;;;3.47;;
22138;SDS011;25815;52.582;13.408;2023-06-10T02:59:01;10.35;;;4.05;;
22138;SDS011;25815;52.582;13.408;2023-06-10T03:01:27;10.18;;;4.28;;
22138;SDS011;25815;52.582;13.408;2023-06-10T03:03:53;8.98;;;3.90;;
22138;SDS011;25815;52.582;13.408;2023-06-10T03:06:21;8.93;;;3.90;;
22138;SDS011;25815;52.582;13.408;2023-06-10T03:08:49;9.88;;;4.28;;
22138;SDS011;25815;52.582;13.408;2023-06-10T03:11:15;13.40;;;4.70;;
22138;SDS011;25815;52.582;13.408;2023-06-10T03:13:41;12.68;;;4.35;;
22138;SDS011;25815;52.582;13.408;2023-06-10T03:16:07;12.18;;;4.18;;
22138;SDS011;25815;52.582;13.408;2023-06-10T03:18:33;13.80;;;4.70;;
22138;SDS011;25815;52.582;13.408;2023-06-10T03:20:59;10.90;;;4.20;;
22138;SDS011;25815;52.582;13.408;2023-06-10T03:23:25;14.98;;;4.32;;
22138;SDS011;25815;52.582;13.408;2023-06-10T03:25:52;11.15;;;4.40;;
22138;SDS011;25815;52.582;13.408;2023-06-10T03:28:19;12.93;;;4.10;;
22138;SDS011;25815;52.582;13.408;2023-06-10T03:30:46;8.32;;;4.13;;
22138;SDS011;25815;52.582;13.408;2023-06-10T03:33:12;10.30;;;3.90;;
22138;SDS011;25815;52.582;13.408;2023-06-10T03:35:38;9.45;;;3.97;;
22138;SDS011;25815;52.582;13.408;2023-06-10T03:38:04;10.88;;;4.25;;
22138;SDS011;25815;52.582;13.408;2023-06-10T03:40:31;10.00;;;4.88;;
22138;SDS011;25815;52.582;13.408;2023-06-10T03:42:57;13.50;;;5.10;;
22138;SDS011;25815;52.582;13.408;2023-06-10T03:45:23;10.52;;;4.55;;
22138;SDS011;25815;52.582;13.408;2023-06-10T03:47:49;11.63;;;4.13;;
22138;SDS011;25815;52.582;13.408;2023-06-10T03:50:15;9.13;;;4.22;;
22138;SDS011;25815;52.582;13.408;2023-06-10T03:52:41;10.18;;;4.18;;
22138;SDS011;25815;52.582;13.408;2023-06-10T03:55:07;10.65;;;4.32;;
22138;SDS011;25815;52.582;13.408;2023-06-10T03:57:33;10.50;;;4.38;;
22138;SDS011;25815;52.582;13.408;2023-06-10T03:59:59;10.75;;;4.55;;
22138;SDS011;25815;52.582;13.408;2023-06-10T04:02:28;8.82;;;4.18;;
22138;SDS011;25815;52.582;13.408;2023-06-10T04:04:53;10.00;;;4.45;;
22138;SDS011;25815;52.582;13.408;2023-06-10T04:07:19;10.95;;;4.57;;
22138;SDS011;25815;52.582;13.408;2023-06-10T04:09:46;11.52;;;4.78;;
22138;SDS011;25815;52.582;13.408;2023-06-10T04:12:12;9.10;;;4.57;;
22138;SDS011;25815;52.582;13.408;2023-06-10T04:14:39;7.75;;;3.88;;
22138;SDS011;25815;52.582;13.408;2023-06-10T04:17:05;9.25;;;4.40;;
22138;SDS011;25815;52.582;13.408;2023-06-10T04:19:35;9.77;;;4.22;;
22138;SDS011;25815;52.582;13.408;2023-06-10T04:22:01;12.40;;;4.85;;
22138;SDS011;25815;52.582;13.408;2023-06-10T04:24:28;8.98;;;4.47;;
22138;SDS011;25815;52.582;13.408;2023-06-10T04:26:54;12.18;;;4.82;;
22138;SDS011;25815;52.582;13.408;2023-06-10T04:29:20;14.13;;;4.43;;
22138;SDS011;25815;52.582;13.408;2023-06-10T04:31:46;9.70;;;4.55;;
22138;SDS011;25815;52.582;13.408;2023-06-10T04:34:13;14.05;;;4.72;;
22138;SDS011;25815;52.582;13.408;2023-06-10T04:36:39;10.18;;;4.53;;
22138;SDS011;25815;52.582;13.408;2023-06-10T04:39:06;8.70;;;4.72;;
22138;SDS011;25815;52.582;13.408;2023-06-10T04:41:31;8.25;;;4.50;;
22138;SDS011;25815;52.582;13.408;2023-06-10T04:43:57;11.07;;;4.65;;
22138;SDS011;25815;52.582;13.408;2023-06-10T04:46:23;11.65;;;5.03;;
22138;SDS011;25815;52.582;13.408;2023-06-10T04:48:50;11.75;;;5.05;;
22138;SDS011;25815;52.582;13.408;2023-06-10T04:51:16;13.07;;;5.28;;
22138;SDS011;25815;52.582;13.408;2023-06-10T04:53:42;7.55;;;4.10;;
22138;SDS011;25815;52.582;13.408;2023-06-10T04:56:08;10.13;;;4.35;;
22138;SDS011;25815;52.582;13.408;2023-06-10T04:58:34;8.32;;;4.57;;
22138;SDS011;25815;52.582;13.408;2023-06-10T05:01:00;12.52;;;4.70;;
22138;SDS011;25815;52.582;13.408;2023-06-10T05:03:26;11.20;;;4.28;;
22138;SDS011;25815;52.582;13.408;2023-06-10T05:05:52;11.05;;;5.30;;
22138;SDS011;25815;52.582;13.408;2023-06-10T05:08:18;8.18;;;4.68;;
22138;SDS011;25815;52.582;13.408;2023-06-10T05:10:44;11.38;;;4.55;;
22138;SDS011;25815;52.582;13.408;2023-06-10T05:13:10;14.10;;;4.85;;
22138;SDS011;25815;52.582;13.408;2023-06-10T05:15:36;11.00;;;4.90;;
22138;SDS011;25815;52.582;13.408;2023-06-10T05:18:02;11.60;;;5.13;;
22138;SDS011;25815;52.582;13.408;2023-06-10T05:20:28;11.38;;;5.15;;
22138;SDS011;25815;52.582;13.408;2023-06-10T05:22:54;12.40;;;5.07;;
22138;SDS011;25815;52.582;13.408;2023-06-10T05:25:20;8.32;;;4.95;;
22138;SDS011;25815;52.582;13.408;2023-06-10T05:27:46;15.48;;;5.43;;
22138;SDS011;25815;52.582;13.408;2023-06-10T05:30:12;12.60;;;5.93;;
22138;SDS011;25815;52.582;13.408;2023-06-10T05:32:38;10.02;;;4.63;;
22138;SDS011;25815;52.582;13.408;2023-06-10T05:35:04;11.40;;;5.32;;
22138;SDS011;25815;52.582;13.408;2023-06-10T05:37:31;12.02;;;4.93;;
22138;SDS011;25815;52.582;13.408;2023-06-10T05:39:57;12.68;;;5.07;;
22138;SDS011;25815;52.582;13.408;2023-06-10T05:42:23;8.35;;;4.90;;
22138;SDS011;25815;52.582;13.408;2023-06-10T05:44:49;11.05;;;4.72;;
22138;SDS011;25815;52.582;13.408;2023-06-10T05:47:15;9.73;;;4.95;;
22138;SDS011;25815;52.582;13.408;2023-06-10T05:49:40;9.90;;;5.20;;
22138;SDS011;25815;52.582;13.408;2023-06-10T05:52:06;9.18;;;4.72;;
22138;SDS011;25815;52.582;13.408;2023-06-10T05:54:32;12.90;;;5.68;;
22138;SDS011;25815;52.582;13.408;2023-06-10T05:56:58;11.27;;;4.78;;
22138;SDS011;25815;52.582;13.408;2023-06-10T05:59:24;9.90;;;5.32;;
22138;SDS011;25815;52.582;13.408;2023-06-10T06:01:50;13.80;;;5.30;;
22138;SDS011;25815;52.582;13.408;2023-06-10T06:04:16;11.18;;;5.15;;
22138;SDS011;25815;52.582;13.408;2023-06-10T06:06:42;9.05;;;5.03;;
22138;SDS011;25815;52.582;13.408;2023-06-10T06:09:08;10.63;;;5.32;;
22138;SDS011;25815;52.582;13.408;2023-06-10T06:11:34;12.93;;;5.50;;
22138;SDS011;25815;52.582;13.408;2023-06-10T06:14:00;8.70;;;5.03;;
22138;SDS011;25815;52.582;13.408;2023-06-10T06:16:26;10.20;;;4.80;;
22138;SDS011;25815;52.582;13.408;2023-06-10T06:18:52;8.02;;;5.40;;
22138;SDS011;25815;52.582;13.408;2023-06-10T06:21:18;8.93;;;5.03;;
22138;SDS011;25815;52.582;13.408;2023-06-10T06:23:44;9.45;;;5.20;;
22138;SDS011;25815;52.582;13.408;2023-06-10T06:26:10;10.32;;;4.68;;
22138;SDS011;25815;52.582;13.408;2023-06-10T06:28:36;8.27;;;4.75;;
22138;SDS011;25815;52.582;13.408;2023-06-10T06:31:02;13.13;;;5.30;;
22138;SDS011;25815;52.582;13.408;2023-06-10T06:33:29;12.68;;;5.13;;
22138;SDS011;25815;52.582;13.408;2023-06-10T06:35:55;11.20;;;4.93;;
22138;SDS011;25815;52.582;13.408;2023-06-10T06:38:21;9.73;;;5.47;;
22138;SDS011;25815;52.582;13.408;2023-06-10T06:40:47;8.07;;;4.72;;
22138;SDS011;25815;52.582;13.408;2023-06-10T06:43:13;9.98;;;5.45;;
22138;SDS011;25815;52.582;13.408;2023-06-10T06:45:39;8.77;;;5.32;;
22138;SDS011;25815;52.582;13.408;2023-06-10T06:48:05;9.63;;;5.00;;
22138;SDS011;25815;52.582;13.408;2023-06-10T06:50:31;8.80;;;4.65;;
22138;SDS011;25815;52.582;13.408;2023-06-10T06:52:57;11.35;;;5.47;;
22138;SDS011;25815;52.582;13.408;2023-06-10T06:55:22;12.07;;;4.97;;
22138;SDS011;25815;52.582;13.408;2023-06-10T06:57:48;15.45;;;5.63;;
22138;SDS011;25815;52.582;13.408;2023-06-10T07:00:14;9.50;;;5.05;;
22138;SDS011;25815;52.582;13.408;2023-06-10T07:02:41;11.65;;;5.28;;
22138;SDS011;25815;52.582;13.408;2023-06-10T07:05:07;10.20;;;5.22;;
22138;SDS011;25815;52.582;13.408;2023-06-10T07:07:33;8.95;;;4.93;;
22138;SDS011;25815;52.582;13.408;2023-06-10T07:09:58;12.98;;;5.68;;
22138;SDS011;25815;52.582;13.408;2023-06-10T07:12:24;13.70;;;5.32;;
22138;SDS011;25815;52.582;13.408;2023-06-10T07:14:50;10.00;;;4.95;;
22138;SDS011;25815;52.582;13.408;2023-06-10T07:17:17;12.27;;;5.07;;
22138;SDS011;25815;52.582;13.408;2023-06-10T07:19:43;12.52;;;5.45;;
22138;SDS011;25815;52.582;13.408;2023-06-10T07:22:09;10.20;;;5.72;;
22138;SDS011;25815;52.582;13.408;2023-06-10T07:24:35;10.93;;;6.13;;
22138;SDS011;25815;52.582;13.408;2023-06-10T07:27:01;8.60;;;5.30;;
22138;SDS011;25815;52.582;13.408;2023-06-10T07:29:27;6.93;;;4.88;;
22138;SDS011;25815;52.582;13.408;2023-06-10T07:31:53;10.95;;;5.32;;
22138;SDS011;25815;52.582;13.408;2023-06-10T07:34:19;11.32;;;5.32;;
22138;SDS011;25815;52.582;13.408;2023-06-10T07:36:45;12.70;;;5.32;;
22138;SDS011;25815;52.582;13.408;2023-06-10T07:39:11;10.77;;;5.38;;
22138;SDS011;25815;52.582;13.408;2023-06-10T07:41:37;8.88;;;5.22;;
22138;SDS011;25815;52.582;13.408;2023-06-10T07:44:02;9.13;;;5.25;;
22138;SDS011;25815;52.582;13.408;2023-06-10T07:46:28;12.20;;;5.68;;
22138;SDS011;25815;52.582;13.408;2023-06-10T07:48:54;10.75;;;5.50;;
22138;SDS011;25815;52.582;13.408;2023-06-10T07:51:21;13.50;;;5.90;;
22138;SDS011;25815;52.582;13.408;2023-06-10T07:53:47;10.05;;;5.60;;
22138;SDS011;25815;52.582;13.408;2023-06-10T07:56:13;9.50;;;5.47;;
22138;SDS011;25815;52.582;13.408;2023-06-10T07:58:39;11.73;;;6.05;;
22138;SDS011;25815;52.582;13.408;2023-06-10T08:01:05;9.05;;;6.13;;
22138;SDS011;25815;52.582;13.408;2023-06-10T08:03:31;10.45;;;5.90;;
22138;SDS011;25815;52.582;13.408;2023-06-10T08:05:57;10.57;;;4.65;;
22138;SDS011;25815;52.582;13.408;2023-06-10T08:08:22;10.88;;;5.03;;
22138;SDS011;25815;52.582;13.408;2023-06-10T08:10:48;12.10;;;5.30;;
22138;SDS011;25815;52.582;13.408;2023-06-10T08:13:14;12.00;;;5.38;;
22138;SDS011;25815;52.582;13.408;2023-06-10T08:15:40;9.00;;;5.00;;
22138;SDS011;25815;52.582;13.408;2023-06-10T08:18:06;9.73;;;5.43;;
22138;SDS011;25815;52.582;13.408;2023-06-10T08:20:32;10.43;;;5.45;;
22138;SDS011;25815;52.582;13.408;2023-06-10T08:22:58;8.63;;;5.35;;
22138;SDS011;25815;52.582;13.408;2023-06-10T08:25:24;9.30;;;5.32;;
22138;SDS011;25815;52.582;13.408;2023-06-10T08:27:50;9.45;;;5.70;;
22138;SDS011;25815;52.582;13.408;2023-06-10T08:30:17;9.30;;;6.00;;
22138;SDS011;25815;52.582;13.408;2023-06-10T08:32:43;10.00;;;5.22;;
22138;SDS011;25815;52.582;13.408;2023-06-10T08:35:09;12.90;;;5.50;;
22138;SDS011;25815;52.582;13.408;2023-06-10T08:37:35;11.45;;;5.72;;
22138;SDS011;25815;52.582;13.408;2023-06-10T08:40:01;11.32;;;5.30;;
22138;SDS011;25815;52.582;13.408;2023-06-10T08:42:36;11.85;;;5.43;;
22138;SDS011;25815;52.582;13.408;2023-06-10T08:45:05;11.07;;;4.97;;
22138;SDS011;25815;52.582;13.408;2023-06-10T08:47:32;11.20;;;5.57;;
22138;SDS011;25815;52.582;13.408;2023-06-10T08:50:02;9.25;;;5.50;;
22138;SDS011;25815;52.582;13.408;2023-06-10T08:52:29;13.60;;;5.28;;
22138;SDS011;25815;52.582;13.408;2023-06-10T08:55:05;9.15;;;5.47;;
22138;SDS011;25815;52.582;13.408;2023-06-10T08:57:33;9.77;;;5.50;;
22138;SDS011;25815;52.582;13.408;2023-06-10T09:00:00;8.35;;;4.95;;
22138;SDS011;25815;52.582;13.408;2023-06-10T09:02:27;9.02;;;4.90;;
22138;SDS011;25815;52.582;13.408;2023-06-10T09:04:53;10.82;;;5.25;;
22138;SDS011;25815;52.582;13.408;2023-06-10T09:07:22;10.77;;;5.22;;
22138;SDS011;25815;52.582;13.408;2023-06-10T09:09:48;11.82;;;5.20;;
22138;SDS011;25815;52.582;13.408;2023-06-10T09:12:14;10.38;;;5.35;;
22138;SDS011;25815;52.582;13.408;2023-06-10T09:14:43;8.63;;;4.80;;
22138;SDS011;25815;52.582;13.408;2023-06-10T09:17:09;13.38;;;6.05;;
22138;SDS011;25815;52.582;13.408;2023-06-10T09:19:36;9.15;;;5.20;;
22138;SDS011;25815;52.582;13.408;2023-06-10T09:22:02;10.48;;;5.30;;
22138;SDS011;25815;52.582;13.408;2023-06-10T09:24:28;12.52;;;5.43;;
22138;SDS011;25815;52.582;13.408;2023-06-10T09:27:01;9.13;;;5.97;;
22138;SDS011;25815;52.582;13.408;2023-06-10T09:29:27;6.38;;;5.00;;
22138;SDS011;25815;52.582;13.408;2023-06-10T09:31:54;10.05;;;5.35;;
22138;SDS011;25815;52.582;13.408;2023-06-10T09:34:24;13.43;;;6.20;;
22138;SDS011;25815;52.582;13.408;2023-06-10T09:36:50;11.93;;;5.93;;
22138;SDS011;25815;52.582;13.408;2023-06-10T09:39:16;16.42;;;6.30;;
22138;SDS011;25815;52.582;13.408;2023-06-10T09:41:43;10.25;;;5.60;;
22138;SDS011;25815;52.582;13.408;2023-06-10T09:44:13;14.85;;;6.55;;
22138;SDS011;25815;52.582;13.408;2023-06-10T09:46:39;9.63;;;5.93;;
22138;SDS011;25815;52.582;13.408;2023-06-10T09:49:05;10.82;;;6.00;;
22138;SDS011;25815;52.582;13.408;2023-06-10T09:51:31;12.85;;;6.80;;
22138;SDS011;25815;52.582;13.408;2023-06-10T09:53:57;14.93;;;7.22;;
22138;SDS011;25815;52.582;13.408;2023-06-10T09:56:36;16.00;;;7.68;;
22138;SDS011;25815;52.582;13.408;2023-06-10T09:59:03;18.27;;;8.20;;
22138;SDS011;25815;52.582;13.408;2023-06-10T10:01:31;12.75;;;8.52;;
22138;SDS011;25815;52.582;13.408;2023-06-10T10:03:58;14.70;;;7.97;;
22138;SDS011;25815;52.582;13.408;2023-06-10T10:06:24;12.95;;;8.45;;
22138;SDS011;25815;52.582;13.408;2023-06-10T10:08:50;18.52;;;10.85;;
22138;SDS011;25815;52.582;13.408;2023-06-10T10:11:17;17.52;;;10.63;;
22138;SDS011;25815;52.582;13.408;2023-06-10T10:13:47;19.42;;;9.07;;
22138;SDS011;25815;52.582;13.408;2023-06-10T10:16:17;17.83;;;9.20;;
22138;SDS011;25815;52.582;13.408;2023-06-10T10:18:45;13.82;;;8.80;;
22138;SDS011;25815;52.582;13.408;2023-06-10T10:21:12;13.10;;;8.97;;
22138;SDS011;25815;52.582;13.408;2023-06-10T10:23:48;17.75;;;9.55;;
22138;SDS011;25815;52.582;13.408;2023-06-10T10:26:18;13.05;;;7.95;;
22138;SDS011;25815;52.582;13.408;2023-06-10T10:28:48;13.38;;;9.02;;
22138;SDS011;25815;52.582;13.408;2023-06-10T10:31:17;13.73;;;8.70;;
22138;SDS011;25815;52.582;13.408;2023-06-10T10:33:54;8.77;;;6.05;;
22138;SDS011;25815;52.582;13.408;2023-06-10T10:36:21;6.80;;;5.47;;
22138;SDS011;25815;52.582;13.408;2023-06-10T10:38:47;6.80;;;5.53;;
22138;SDS011;25815;52.582;13.408;2023-06-10T10:41:14;7.90;;;5.68;;
22138;SDS011;25815;52.582;13.408;2023-06-10T10:43:41;5.60;;;4.95;;
22138;SDS011;25815;52.582;13.408;2023-06-10T10:46:11;8.73;;;5.18;;
22138;SDS011;25815;52.582;13.408;2023-06-10T10:48:37;5.75;;;5.10;;
22138;SDS011;25815;52.582;13.408;2023-06-10T10:51:03;7.20;;;4.20;;
22138;SDS011;25815;52.582;13.408;2023-06-10T10:53:29;8.05;;;4.80;;
22138;SDS011;25815;52.582;13.408;2023-06-10T10:58:31;9.85;;;5.07;;
22138;SDS011;25815;52.582;13.408;2023-06-10T11:00:57;17.90;;;5.93;;
22138;SDS011;25815;52.582;13.408;2023-06-10T11:03:24;18.85;;;6.50;;
22138;SDS011;25815;52.582;13.408;2023-06-10T11:05:53;17.55;;;6.55;;
22138;SDS011;25815;52.582;13.408;2023-06-10T11:10:54;10.27;;;8.02;;
22138;SDS011;25815;52.582;13.408;2023-06-10T11:13:21;8.23;;;7.03;;
22138;SDS011;25815;52.582;13.408;2023-06-10T11:15:48;9.15;;;7.78;;
22138;SDS011;25815;52.582;13.408;2023-06-10T11:18:19;13.77;;;8.07;;
22138;SDS011;25815;52.582;13.408;2023-06-10T11:23:24;11.52;;;8.77;;
22138;SDS011;25815;52.582;13.408;2023-06-10T11:25:50;7.40;;;5.97;;
22138;SDS011;25815;52.582;13.408;2023-06-10T11:28:19;9.80;;;5.80;;
22138;SDS011;25815;52.582;13.408;2023-06-10T11:30:46;7.45;;;5.60;;
22138;SDS011;25815;52.582;13.408;2023-06-10T11:33:16;6.38;;;4.95;;
22138;SDS011;25815;52.582;13.408;2023-06-10T11:35:42;7.63;;;6.22;;
22138;SDS011;25815;52.582;13.408;2023-06-10T11:38:09;11.32;;;5.45;;
22138;SDS011;25815;52.582;13.408;2023-06-10T11:40:36;6.38;;;5.68;;
22138;SDS011;25815;52.582;13.408;2023-06-10T11:43:03;7.80;;;5.75;;
22138;SDS011;25815;52.582;13.408;2023-06-10T11:45:30;7.32;;;5.15;;
22138;SDS011;25815;52.582;13.408;2023-06-10T11:47:59;8.35;;;5.70;;
22138;SDS011;25815;52.582;13.408;2023-06-10T11:50:31;9.07;;;5.60;;
22138;SDS011;25815;52.582;13.408;2023-06-10T11:52:57;9.15;;;5.88;;
22138;SDS011;25815;52.582;13.408;2023-06-10T11:55:24;6.93;;;5.93;;
22138;SDS011;25815;52.582;13.408;2023-06-10T11:57:50;7.78;;;6.28;;
22138;SDS011;25815;52.582;13.408;2023-06-10T12:00:22;7.68;;;6.07;;
22138;SDS011;25815;52.582;13.408;2023-06-10T12:02:55;7.15;;;5.55;;
22138;SDS011;25815;52.582;13.408;2023-06-10T12:05:22;6.22;;;5.45;;
22138;SDS011;25815;52.582;13.408;2023-06-10T12:07:48;8.63;;;5.53;;
22138;SDS011;25815;52.582;13.408;2023-06-10T12:10:14;11.20;;;5.40;;
22138;SDS011;25815;52.582;13.408;2023-06-10T12:12:41;8.07;;;4.93;;
22138;SDS011;25815;52.582;13.408;2023-06-10T12:15:08;6.45;;;4.47;;
22138;SDS011;25815;52.582;13.408;2023-06-10T12:20:02;4.80;;;4.32;;
22138;SDS011;25815;52.582;13.408;2023-06-10T12:22:38;5.53;;;3.95;;
22138;SDS011;25815;52.582;13.408;2023-06-10T12:25:05;4.75;;;4.22;;
22138;SDS011;25815;52.582;13.408;2023-06-10T12:27:32;4.78;;;4.25;;
22138;SDS011;25815;52.582;13.408;2023-06-10T12:29:58;6.93;;;4.55;;
22138;SDS011;25815;52.582;13.408;2023-06-10T12:32:35;5.90;;;4.07;;
22138;SDS011;25815;52.582;13.408;2023-06-10T12:35:04;4.45;;;4.05;;
22138;SDS011;25815;52.582;13.408;2023-06-10T12:37:31;5.75;;;4.85;;
22138;SDS011;25815;52.582;13.408;2023-06-10T12:40:03;5.75;;;4.68;;
22138;SDS011;25815;52.582;13.408;2023-06-10T12:42:30;7.60;;;5.28;;
22138;SDS011;25815;52.582;13.408;2023-06-10T12:44:56;6.45;;;5.13;;
22138;SDS011;25815;52.582;13.408;2023-06-10T12:47:29;6.07;;;5.13;;
22138;SDS011;25815;52.582;13.408;2023-06-10T12:49:57;8.85;;;5.65;;
22138;SDS011;25815;52.582;13.408;2023-06-10T12:52:23;10.27;;;6.10;;
22138;SDS011;25815;52.582;13.408;2023-06-10T12:54:49;9.07;;;6.15;;
22138;SDS011;25815;52.582;13.408;2023-06-10T12:57:16;7.43;;;6.03;;
22138;SDS011;25815;52.582;13.408;2023-06-10T12:59:42;8.70;;;5.97;;
22138;SDS011;25815;52.582;13.408;2023-06-10T13:02:15;6.32;;;5.72;;
22138;SDS011;25815;52.582;13.408;2023-06-10T13:04:41;6.75;;;5.90;;
22138;SDS011;25815;52.582;13.408;2023-06-10T13:07:07;10.07;;;6.65;;
22138;SDS011;25815;52.582;13.408;2023-06-10T13:09:33;11.80;;;6.60;;
22138;SDS011;25815;52.582;13.408;2023-06-10T13:11:59;7.07;;;6.28;;
22138;SDS011;25815;52.582;13.408;2023-06-10T13:14:25;9.93;;;6.28;;
22138;SDS011;25815;52.582;13.408;2023-06-10T13:16:51;6.95;;;6.18;;
22138;SDS011;25815;52.582;13.408;2023-06-10T13:19:16;7.72;;;6.10;;
22138;SDS011;25815;52.582;13.408;2023-06-10T13:21:42;8.10;;;6.25;;
22138;SDS011;25815;52.582;13.408;2023-06-10T13:24:08;8.38;;;5.68;;
22138;SDS011;25815;52.582;13.408;2023-06-10T13:26:34;6.75;;;5.85;;
22138;SDS011;25815;52.582;13.408;2023-06-10T13:29:00;7.28;;;5.75;;
22138;SDS011;25815;52.582;13.408;2023-06-10T13:31:26;6.82;;;5.78;;
22138;SDS011;25815;52.582;13.408;2023-06-10T13:33:52;6.95;;;6.10;;
22138;SDS011;25815;52.582;13.408;2023-06-10T13:36:18;9.75;;;5.78;;
22138;SDS011;25815;52.582;13.408;2023-06-10T13:38:44;10.15;;;5.47;;
22138;SDS011;25815;52.582;13.408;2023-06-10T13:41:10;7.93;;;5.35;;
22138;SDS011;25815;52.582;13.408;2023-06-10T13:43:37;9.15;;;5.57;;
22138;SDS011;25815;52.582;13.408;2023-06-10T13:46:03;6.78;;;5.90;;
22138;SDS011;25815;52.582;13.408;2023-06-10T13:48:29;6.78;;;5.20;;
22138;SDS011;25815;52.582;13.408;2023-06-10T13:50:56;7.28;;;5.40;;
22138;SDS011;25815;52.582;13.408;2023-06-10T13:53:22;8.30;;;5.75;;
22138;SDS011;25815;52.582;13.408;2023-06-10T13:55:48;9.00;;;5.10;;
22138;SDS011;25815;52.582;13.408;2023-06-10T13:58:14;9.05;;;5.30;;
22138;SDS011;25815;52.582;13.408;2023-06-10T14:00:40;6.53;;;5.50;;
22138;SDS011;25815;52.582;13.408;2023-06-10T14:03:06;5.68;;;5.00;;
22138;SDS011;25815;52.582;13.408;2023-06-10T14:05:32;6.90;;;5.30;;
22138;SDS011;25815;52.582;13.408;2023-06-10T14:07:58;8.38;;;5.00;;
22138;SDS011;25815;52.582;13.408;2023-06-10T14:10:24;5.57;;;5.07;;
22138;SDS011;25815;52.582;13.408;2023-06-10T14:12:50;5.57;;;4.97;;
22138;SDS011;25815;52.582;13.408;2023-06-10T14:15:16;5.68;;;4.93;;
22138;SDS011;25815;52.582;13.408;2023-06-10T14:17:42;9.38;;;4.63;;
22138;SDS011;25815;52.582;13.408;2023-06-10T14:20:08;5.82;;;4.50;;
22138;SDS011;25815;52.582;13.408;2023-06-10T14:22:35;9.95;;;4.53;;
22138;SDS011;25815;52.582;13.408;2023-06-10T14:25:01;8.95;;;4.30;;
22138;SDS011;25815;52.582;13.408;2023-06-10T14:27:27;5.40;;;4.90;;
22138;SDS011;25815;52.582;13.408;2023-06-10T14:29:53;5.05;;;4.53;;
22138;SDS011;25815;52.582;13.408;2023-06-10T14:32:19;6.15;;;4.50;;
22138;SDS011;25815;52.582;13.408;2023-06-10T14:34:45;5.85;;;4.50;;